ダーウィン の空港の天気 - METARとTAF

ダーウィン国際空港 ( YPDN / DRW ) - オーストラリア ノーザンテリトリーダーウィン
飛行場実況気象(Metar)
観測時間07/23 04:00 ACST (07/22 18:30 UTC)
風向・風速北東 1m/s
視程10km以上
天気現象散在した霧
なし
気温17℃
湿度94%
気圧1013hPa
METARYPDN 221830Z 04002KT 9999 1700NW BCFG NSC 17/16 Q1013
過去の天気等 Google飛行場航空写真 Wunderground天気予報

過去48時間のMETAR

飛行場予報(TAF)
発表時間: 7/23 03:00 ACST (7/22 17:30 UTC)
予報対象時間: 23日3時 ACST ~ 24日9時 ACST
風向・風速南東 3m/s
視程10km以上
なし
23日9時 ACST から
風向・風速東南東 5m/s
視程10km以上
なし
23日14時 ACST から
風向・風速北西 4m/s
視程10km以上
なし
23日21時 ACST から
風向・風速南東 3m/s
視程10km以上
なし
TAF YPDN 221730Z 2218/2324 14005KT CAVOK
FM230000 11010KT CAVOK
FM230500 32008KT CAVOK
FM231200 14005KT CAVOK